Terminal Aerodrome Forecast
Issued by NWS Charleston, SC

Home | Current Version | Previous Version | Text Only | Print | Product List | Glossary On
Versions: 1 2 3 4 5 6 7 8 9 10 11 12 13 14 15 16 17 18 19
000
FTUS42 KCHS 221700
TAFCHS
TAF
KCHS 221732Z 2218/2318 17004KT P6SM FEW060 SCT200
     FM222100 02005KT P6SM VCTS SCT040CB BKN200
      TEMPO 2221/2223 VRB15G25KT 4SM TSRA BR BKN040CB
     FM230000 03005KT 6SM -RA BR SCT015 BKN050
     FM230900 04010KT P6SM VCSH SCT020 BKN035=

USA.gov is the U.S. government's official web portal to all federal, state and local government web resources and services.